sensor_id;sensor_type;location;lat;lon;timestamp;pressure;altitude;pressure_sealevel;temperature;humidity
53932;BME280;39844;52.496;13.482;2024-03-29T00:01:26;99613.03;;;9.40;73.56
53932;BME280;39844;52.496;13.482;2024-03-29T00:03:51;99606.94;;;9.38;73.60
53932;BME280;39844;52.496;13.482;2024-03-29T00:06:17;99608.69;;;9.36;74.26
53932;BME280;39844;52.496;13.482;2024-03-29T00:08:42;99612.22;;;9.35;74.09
53932;BME280;39844;52.496;13.482;2024-03-29T00:11:07;99605.25;;;9.34;73.91
53932;BME280;39844;52.496;13.482;2024-03-29T00:13:32;99609.63;;;9.33;73.98
53932;BME280;39844;52.496;13.482;2024-03-29T00:15:58;99610.50;;;9.34;74.66
53932;BME280;39844;52.496;13.482;2024-03-29T00:18:23;99609.63;;;9.33;74.48
53932;BME280;39844;52.496;13.482;2024-03-29T00:20:48;99618.34;;;9.35;74.44
53932;BME280;39844;52.496;13.482;2024-03-29T00:23:14;99615.63;;;9.38;75.01
53932;BME280;39844;52.496;13.482;2024-03-29T00:25:39;99619.97;;;9.41;74.77
53932;BME280;39844;52.496;13.482;2024-03-29T00:28:05;99630.34;;;9.47;73.95
53932;BME280;39844;52.496;13.482;2024-03-29T00:30:30;99629.38;;;9.51;73.26
53932;BME280;39844;52.496;13.482;2024-03-29T00:32:55;99622.34;;;9.54;73.09
53932;BME280;39844;52.496;13.482;2024-03-29T00:35:20;99623.19;;;9.58;73.08
53932;BME280;39844;52.496;13.482;2024-03-29T00:37:46;99640.59;;;9.61;72.65
53932;BME280;39844;52.496;13.482;2024-03-29T00:40:11;99644.91;;;9.63;72.26
53932;BME280;39844;52.496;13.482;2024-03-29T00:42:36;99649.25;;;9.64;72.62
53932;BME280;39844;52.496;13.482;2024-03-29T00:45:02;99652.78;;;9.63;72.88
53932;BME280;39844;52.496;13.482;2024-03-29T00:47:27;99665.94;;;9.60;73.70
53932;BME280;39844;52.496;13.482;2024-03-29T00:49:53;99668.69;;;9.52;74.76
53932;BME280;39844;52.496;13.482;2024-03-29T00:52:18;99666.22;;;9.42;75.96
53932;BME280;39844;52.496;13.482;2024-03-29T00:54:43;99668.13;;;9.31;76.97
53932;BME280;39844;52.496;13.482;2024-03-29T00:57:09;99664.84;;;9.20;78.35
53932;BME280;39844;52.496;13.482;2024-03-29T00:59:34;99667.63;;;9.09;79.90
53932;BME280;39844;52.496;13.482;2024-03-29T01:01:59;99666.91;;;9.00;80.64
53932;BME280;39844;52.496;13.482;2024-03-29T01:04:24;99663.53;;;8.90;81.81
53932;BME280;39844;52.496;13.482;2024-03-29T01:06:50;99674.09;;;8.82;82.09
53932;BME280;39844;52.496;13.482;2024-03-29T01:09:15;99665.53;;;8.73;82.82
53932;BME280;39844;52.496;13.482;2024-03-29T01:11:40;99656.06;;;8.64;83.70
53932;BME280;39844;52.496;13.482;2024-03-29T01:14:06;99653.53;;;8.57;84.32
53932;BME280;39844;52.496;13.482;2024-03-29T01:16:31;99653.63;;;8.49;85.18
53932;BME280;39844;52.496;13.482;2024-03-29T01:18:57;99654.63;;;8.41;86.17
53932;BME280;39844;52.496;13.482;2024-03-29T01:21:23;99653.88;;;8.31;86.72
53932;BME280;39844;52.496;13.482;2024-03-29T01:23:48;99673.94;;;8.24;87.42
53932;BME280;39844;52.496;13.482;2024-03-29T01:26:14;99660.09;;;8.18;88.24
53932;BME280;39844;52.496;13.482;2024-03-29T01:28:39;99661.94;;;8.10;89.06
53932;BME280;39844;52.496;13.482;2024-03-29T01:31:05;99666.34;;;8.05;89.58
53932;BME280;39844;52.496;13.482;2024-03-29T01:33:30;99670.75;;;7.98;90.33
53932;BME280;39844;52.496;13.482;2024-03-29T01:35:56;99664.69;;;7.93;90.65
53932;BME280;39844;52.496;13.482;2024-03-29T01:38:21;99676.09;;;7.88;91.35
53932;BME280;39844;52.496;13.482;2024-03-29T01:40:46;99675.28;;;7.83;92.04
53932;BME280;39844;52.496;13.482;2024-03-29T01:43:12;99677.06;;;7.78;92.67
53932;BME280;39844;52.496;13.482;2024-03-29T01:45:38;99666.69;;;7.72;93.08
53932;BME280;39844;52.496;13.482;2024-03-29T01:48:05;99669.34;;;7.67;93.49
53932;BME280;39844;52.496;13.482;2024-03-29T01:50:31;99678.06;;;7.63;93.81
53932;BME280;39844;52.496;13.482;2024-03-29T01:52:58;99669.41;;;7.58;94.24
53932;BME280;39844;52.496;13.482;2024-03-29T01:55:23;99666.84;;;7.53;94.57
53932;BME280;39844;52.496;13.482;2024-03-29T01:57:50;99672.09;;;7.50;94.80
53932;BME280;39844;52.496;13.482;2024-03-29T02:00:16;99666.91;;;7.47;94.85
53932;BME280;39844;52.496;13.482;2024-03-29T02:02:41;99670.41;;;7.43;95.28
53932;BME280;39844;52.496;13.482;2024-03-29T02:05:06;99679.16;;;7.39;95.43
53932;BME280;39844;52.496;13.482;2024-03-29T02:07:32;99673.97;;;7.36;95.59
53932;BME280;39844;52.496;13.482;2024-03-29T02:09:57;99684.41;;;7.33;96.13
53932;BME280;39844;52.496;13.482;2024-03-29T02:12:23;99677.50;;;7.29;96.30
53932;BME280;39844;52.496;13.482;2024-03-29T02:14:48;99687.97;;;7.26;96.24
53932;BME280;39844;52.496;13.482;2024-03-29T02:17:13;99689.72;;;7.23;96.23
53932;BME280;39844;52.496;13.482;2024-03-29T02:19:39;99690.59;;;7.20;96.38
53932;BME280;39844;52.496;13.482;2024-03-29T02:22:05;99691.50;;;7.18;96.26
53932;BME280;39844;52.496;13.482;2024-03-29T02:24:31;99684.53;;;7.15;95.83
53932;BME280;39844;52.496;13.482;2024-03-29T02:26:57;99684.56;;;7.12;95.77
53932;BME280;39844;52.496;13.482;2024-03-29T02:29:23;99691.53;;;7.10;95.37
53932;BME280;39844;52.496;13.482;2024-03-29T02:31:49;99692.44;;;7.08;95.85
53932;BME280;39844;52.496;13.482;2024-03-29T02:34:14;99696.78;;;7.07;95.77
53932;BME280;39844;52.496;13.482;2024-03-29T02:36:39;99697.69;;;7.03;95.81
53932;BME280;39844;52.496;13.482;2024-03-29T02:39:04;99701.16;;;7.02;95.95
53932;BME280;39844;52.496;13.482;2024-03-29T02:41:30;99702.94;;;6.98;95.79
53932;BME280;39844;52.496;13.482;2024-03-29T02:43:56;99702.94;;;6.95;95.53
53932;BME280;39844;52.496;13.482;2024-03-29T02:46:21;99701.22;;;6.93;95.44
53932;BME280;39844;52.496;13.482;2024-03-29T02:48:47;99709.03;;;6.93;95.27
53932;BME280;39844;52.496;13.482;2024-03-29T02:51:12;99709.06;;;6.91;94.88
53932;BME280;39844;52.496;13.482;2024-03-29T02:53:37;99719.50;;;6.90;94.69
53932;BME280;39844;52.496;13.482;2024-03-29T02:56:03;99714.28;;;6.87;94.33
53932;BME280;39844;52.496;13.482;2024-03-29T02:58:28;99710.81;;;6.85;94.00
53932;BME280;39844;52.496;13.482;2024-03-29T03:00:53;99709.97;;;6.83;94.06
53932;BME280;39844;52.496;13.482;2024-03-29T03:03:19;99709.09;;;6.82;94.01
53932;BME280;39844;52.496;13.482;2024-03-29T03:05:44;99714.34;;;6.81;93.75
53932;BME280;39844;52.496;13.482;2024-03-29T03:08:09;99718.69;;;6.77;93.38
53932;BME280;39844;52.496;13.482;2024-03-29T03:10:45;99716.94;;;6.76;93.31
53932;BME280;39844;52.496;13.482;2024-03-29T03:13:10;99727.41;;;6.75;93.27
53932;BME280;39844;52.496;13.482;2024-03-29T03:15:35;99726.53;;;6.73;93.70
53932;BME280;39844;52.496;13.482;2024-03-29T03:18:01;99736.09;;;6.69;93.89
53932;BME280;39844;52.496;13.482;2024-03-29T03:20:26;99741.34;;;6.68;93.96
53932;BME280;39844;52.496;13.482;2024-03-29T03:22:51;99739.63;;;6.65;93.95
53932;BME280;39844;52.496;13.482;2024-03-29T03:25:16;99724.84;;;6.63;94.06
53932;BME280;39844;52.496;13.482;2024-03-29T03:27:42;99730.06;;;6.60;93.88
53932;BME280;39844;52.496;13.482;2024-03-29T03:30:07;99732.69;;;6.58;93.85
53932;BME280;39844;52.496;13.482;2024-03-29T03:32:33;99736.16;;;6.54;93.92
53932;BME280;39844;52.496;13.482;2024-03-29T03:34:58;99753.53;;;6.54;93.97
53932;BME280;39844;52.496;13.482;2024-03-29T03:37:23;99751.81;;;6.53;94.37
53932;BME280;39844;52.496;13.482;2024-03-29T03:39:49;99754.41;;;6.51;93.71
53932;BME280;39844;52.496;13.482;2024-03-29T03:42:14;99754.44;;;6.50;93.29
53932;BME280;39844;52.496;13.482;2024-03-29T03:44:39;99763.13;;;6.49;93.10
53932;BME280;39844;52.496;13.482;2024-03-29T03:47:05;99755.31;;;6.47;92.61
53932;BME280;39844;52.496;13.482;2024-03-29T03:49:30;99758.78;;;6.46;92.66
53932;BME280;39844;52.496;13.482;2024-03-29T03:51:55;99750.97;;;6.45;92.49
53932;BME280;39844;52.496;13.482;2024-03-29T03:54:20;99759.66;;;6.44;92.27
53932;BME280;39844;52.496;13.482;2024-03-29T03:56:46;99750.97;;;6.42;92.16
53932;BME280;39844;52.496;13.482;2024-03-29T03:59:11;99739.69;;;6.40;92.00
53932;BME280;39844;52.496;13.482;2024-03-29T04:01:39;99733.63;;;6.39;92.01
53932;BME280;39844;52.496;13.482;2024-03-29T04:04:04;99728.41;;;6.38;91.79
53932;BME280;39844;52.496;13.482;2024-03-29T04:06:29;99730.16;;;6.35;91.79
53932;BME280;39844;52.496;13.482;2024-03-29T04:08:55;99723.22;;;6.31;91.64
53932;BME280;39844;52.496;13.482;2024-03-29T04:11:20;99722.38;;;6.29;91.90
53932;BME280;39844;52.496;13.482;2024-03-29T04:13:45;99724.09;;;6.26;91.88
53932;BME280;39844;52.496;13.482;2024-03-29T04:16:11;99726.72;;;6.24;92.11
53932;BME280;39844;52.496;13.482;2024-03-29T04:18:36;99733.66;;;6.21;92.59
53932;BME280;39844;52.496;13.482;2024-03-29T04:21:02;99737.16;;;6.18;92.90
53932;BME280;39844;52.496;13.482;2024-03-29T04:23:28;99731.94;;;6.15;92.92
53932;BME280;39844;52.496;13.482;2024-03-29T04:25:58;99738.88;;;6.13;93.30
53932;BME280;39844;52.496;13.482;2024-03-29T04:28:24;99737.16;;;6.11;93.59
53932;BME280;39844;52.496;13.482;2024-03-29T04:30:54;99737.19;;;6.06;93.82
53932;BME280;39844;52.496;13.482;2024-03-29T04:33:19;99746.72;;;6.03;94.79
53932;BME280;39844;52.496;13.482;2024-03-29T04:36:03;99737.19;;;6.00;94.93
53932;BME280;39844;52.496;13.482;2024-03-29T04:38:29;99731.13;;;5.97;94.86
53932;BME280;39844;52.496;13.482;2024-03-29T04:40:55;99727.66;;;5.95;95.11
53932;BME280;39844;52.496;13.482;2024-03-29T04:43:24;99732.00;;;5.94;95.28
53932;BME280;39844;52.496;13.482;2024-03-29T04:45:49;99739.78;;;5.93;95.31
53932;BME280;39844;52.496;13.482;2024-03-29T04:48:15;99746.75;;;5.91;95.43
53932;BME280;39844;52.496;13.482;2024-03-29T04:50:40;99734.59;;;5.88;95.48
53932;BME280;39844;52.496;13.482;2024-03-29T04:53:08;99737.19;;;5.88;95.49
53932;BME280;39844;52.496;13.482;2024-03-29T04:55:33;99725.06;;;5.89;95.32
53932;BME280;39844;52.496;13.482;2024-03-29T04:57:58;99738.94;;;5.88;95.20
53932;BME280;39844;52.496;13.482;2024-03-29T05:00:24;99745.00;;;5.88;94.83
53932;BME280;39844;52.496;13.482;2024-03-29T05:02:50;99740.66;;;5.90;94.45
53932;BME280;39844;52.496;13.482;2024-03-29T05:05:16;99734.59;;;5.91;94.03
53932;BME280;39844;52.496;13.482;2024-03-29T05:07:41;99723.31;;;5.92;94.07
53932;BME280;39844;52.496;13.482;2024-03-29T05:10:07;99737.19;;;5.94;94.16
53932;BME280;39844;52.496;13.482;2024-03-29T05:12:32;99745.00;;;5.94;94.06
53932;BME280;39844;52.496;13.482;2024-03-29T05:14:58;99742.41;;;5.97;93.84
53932;BME280;39844;52.496;13.482;2024-03-29T05:17:23;99744.13;;;5.98;93.96
53932;BME280;39844;52.496;13.482;2024-03-29T05:19:48;99741.53;;;6.00;93.73
53932;BME280;39844;52.496;13.482;2024-03-29T05:22:14;99741.50;;;6.03;93.47
53932;BME280;39844;52.496;13.482;2024-03-29T05:24:39;99740.63;;;6.05;93.59
53932;BME280;39844;52.496;13.482;2024-03-29T05:27:04;99748.44;;;6.08;93.11
53932;BME280;39844;52.496;13.482;2024-03-29T05:29:30;99748.44;;;6.13;92.72
53932;BME280;39844;52.496;13.482;2024-03-29T05:31:55;99757.97;;;6.18;92.65
53932;BME280;39844;52.496;13.482;2024-03-29T05:34:20;99758.84;;;6.23;92.73
53932;BME280;39844;52.496;13.482;2024-03-29T05:36:45;99757.09;;;6.27;92.06
53932;BME280;39844;52.496;13.482;2024-03-29T05:39:11;99770.13;;;6.31;92.04
53932;BME280;39844;52.496;13.482;2024-03-29T05:41:36;99755.34;;;6.33;91.50
53932;BME280;39844;52.496;13.482;2024-03-29T05:44:03;99755.31;;;6.41;91.03
53932;BME280;39844;52.496;13.482;2024-03-29T05:46:28;99746.63;;;6.45;90.44
53932;BME280;39844;52.496;13.482;2024-03-29T05:48:54;99740.56;;;6.48;89.84
53932;BME280;39844;52.496;13.482;2024-03-29T05:51:19;99736.19;;;6.51;89.59
53932;BME280;39844;52.496;13.482;2024-03-29T05:53:44;99734.44;;;6.58;89.73
53932;BME280;39844;52.496;13.482;2024-03-29T05:56:10;99743.97;;;6.62;89.49
53932;BME280;39844;52.496;13.482;2024-03-29T05:58:35;99748.28;;;6.67;89.27
53932;BME280;39844;52.496;13.482;2024-03-29T06:01:00;99755.22;;;6.71;88.72
53932;BME280;39844;52.496;13.482;2024-03-29T06:03:25;99755.22;;;6.76;88.44
53932;BME280;39844;52.496;13.482;2024-03-29T06:05:51;99755.16;;;6.82;88.07
53932;BME280;39844;52.496;13.482;2024-03-29T06:08:16;99755.16;;;6.88;88.24
53932;BME280;39844;52.496;13.482;2024-03-29T06:10:41;99766.44;;;6.93;87.55
53932;BME280;39844;52.496;13.482;2024-03-29T06:13:07;99764.69;;;6.96;87.01
53932;BME280;39844;52.496;13.482;2024-03-29T06:15:33;99766.38;;;7.02;86.37
53932;BME280;39844;52.496;13.482;2024-03-29T06:17:58;99774.19;;;7.08;85.93
53932;BME280;39844;52.496;13.482;2024-03-29T06:20:24;99779.34;;;7.16;85.36
53932;BME280;39844;52.496;13.482;2024-03-29T06:22:49;99775.81;;;7.23;85.75
53932;BME280;39844;52.496;13.482;2024-03-29T06:25:15;99780.13;;;7.31;85.58
53932;BME280;39844;52.496;13.482;2024-03-29T06:27:41;99780.97;;;7.39;85.02
53932;BME280;39844;52.496;13.482;2024-03-29T06:30:07;99775.69;;;7.45;85.11
53932;BME280;39844;52.496;13.482;2024-03-29T06:32:32;99794.78;;;7.53;84.77
53932;BME280;39844;52.496;13.482;2024-03-29T06:34:58;99790.38;;;7.61;84.47
53932;BME280;39844;52.496;13.482;2024-03-29T06:37:24;99789.47;;;7.67;84.42
53932;BME280;39844;52.496;13.482;2024-03-29T06:39:49;99795.50;;;7.74;83.79
53932;BME280;39844;52.496;13.482;2024-03-29T06:42:15;99795.47;;;7.80;83.42
53932;BME280;39844;52.496;13.482;2024-03-29T06:44:40;99793.69;;;7.85;82.94
53932;BME280;39844;52.496;13.482;2024-03-29T06:47:07;99799.72;;;7.93;83.06
53932;BME280;39844;52.496;13.482;2024-03-29T06:49:32;99795.28;;;8.01;82.83
53932;BME280;39844;52.496;13.482;2024-03-29T06:51:58;99804.81;;;8.08;82.06
53932;BME280;39844;52.496;13.482;2024-03-29T06:54:23;99813.47;;;8.13;81.14
53932;BME280;39844;52.496;13.482;2024-03-29T06:56:48;99807.28;;;8.23;81.02
53932;BME280;39844;52.496;13.482;2024-03-29T06:59:14;99813.34;;;8.31;80.54
53932;BME280;39844;52.496;13.482;2024-03-29T07:01:39;99820.22;;;8.40;80.16
53932;BME280;39844;52.496;13.482;2024-03-29T07:04:04;99829.72;;;8.51;80.88
53932;BME280;39844;52.496;13.482;2024-03-29T07:06:30;99834.84;;;8.59;79.35
53932;BME280;39844;52.496;13.482;2024-03-29T07:08:55;99830.38;;;8.68;78.56
53932;BME280;39844;52.496;13.482;2024-03-29T07:11:20;99818.06;;;8.78;78.41
53932;BME280;39844;52.496;13.482;2024-03-29T07:13:45;99801.41;;;8.86;77.76
53932;BME280;39844;52.496;13.482;2024-03-29T07:16:11;99801.28;;;8.96;77.43
53932;BME280;39844;52.496;13.482;2024-03-29T07:18:36;99812.53;;;9.04;76.90
53932;BME280;39844;52.496;13.482;2024-03-29T07:21:01;99824.66;;;9.12;75.69
53932;BME280;39844;52.496;13.482;2024-03-29T07:23:27;99836.81;;;9.18;75.82
53932;BME280;39844;52.496;13.482;2024-03-29T07:26:03;99851.56;;;9.22;74.88
53932;BME280;39844;52.496;13.482;2024-03-29T07:28:29;99862.88;;;9.25;74.32
53932;BME280;39844;52.496;13.482;2024-03-29T07:30:55;99862.81;;;9.30;73.97
53932;BME280;39844;52.496;13.482;2024-03-29T07:33:21;99859.25;;;9.35;73.73
53932;BME280;39844;52.496;13.482;2024-03-29T07:35:47;99857.44;;;9.39;73.58
53932;BME280;39844;52.496;13.482;2024-03-29T07:38:12;99857.38;;;9.45;73.23
53932;BME280;39844;52.496;13.482;2024-03-29T07:40:38;99850.31;;;9.48;72.78
53932;BME280;39844;52.496;13.482;2024-03-29T07:43:03;99860.69;;;9.56;73.56
53932;BME280;39844;52.496;13.482;2024-03-29T07:45:28;99868.44;;;9.65;73.56
53932;BME280;39844;52.496;13.482;2024-03-29T07:47:53;99862.22;;;9.72;72.88
53932;BME280;39844;52.496;13.482;2024-03-29T07:50:19;99855.19;;;9.76;72.51
53932;BME280;39844;52.496;13.482;2024-03-29T07:52:45;99850.75;;;9.79;72.29
53932;BME280;39844;52.496;13.482;2024-03-29T07:55:10;99863.78;;;9.85;72.35
53932;BME280;39844;52.496;13.482;2024-03-29T07:57:36;99854.97;;;9.89;71.74
53932;BME280;39844;52.496;13.482;2024-03-29T08:00:01;99863.72;;;9.91;70.80
53932;BME280;39844;52.496;13.482;2024-03-29T08:02:26;99866.22;;;9.97;70.46
53932;BME280;39844;52.496;13.482;2024-03-29T08:04:54;99873.09;;;10.04;69.69
53932;BME280;39844;52.496;13.482;2024-03-29T08:07:20;99876.50;;;10.11;69.08
53932;BME280;39844;52.496;13.482;2024-03-29T08:09:45;99879.91;;;10.18;68.73
53932;BME280;39844;52.496;13.482;2024-03-29T08:12:10;99887.72;;;10.21;67.57
53932;BME280;39844;52.496;13.482;2024-03-29T08:14:36;99895.53;;;10.25;67.40
53932;BME280;39844;52.496;13.482;2024-03-29T08:17:01;99884.94;;;10.30;67.17
53932;BME280;39844;52.496;13.482;2024-03-29T08:19:26;99884.84;;;10.36;67.97
53932;BME280;39844;52.496;13.482;2024-03-29T08:21:51;99874.28;;;10.42;68.18
53932;BME280;39844;52.496;13.482;2024-03-29T08:24:17;99887.34;;;10.45;68.23
53932;BME280;39844;52.496;13.482;2024-03-29T08:26:42;99878.53;;;10.49;67.89
53932;BME280;39844;52.496;13.482;2024-03-29T08:29:07;99876.72;;;10.52;68.45
53932;BME280;39844;52.496;13.482;2024-03-29T08:31:33;99875.75;;;10.56;68.36
53932;BME280;39844;52.496;13.482;2024-03-29T08:33:58;99851.19;;;10.62;69.34
53932;BME280;39844;52.496;13.482;2024-03-29T08:36:23;99849.28;;;10.68;70.57
53932;BME280;39844;52.496;13.482;2024-03-29T08:38:48;99826.44;;;10.75;71.13
53932;BME280;39844;52.496;13.482;2024-03-29T08:41:14;99829.91;;;10.77;69.79
53932;BME280;39844;52.496;13.482;2024-03-29T08:43:39;99819.25;;;10.83;70.74
53932;BME280;39844;52.496;13.482;2024-03-29T08:46:04;99804.28;;;10.88;70.92
53932;BME280;39844;52.496;13.482;2024-03-29T08:48:30;99809.38;;;10.97;71.24
53932;BME280;39844;52.496;13.482;2024-03-29T08:50:55;99825.78;;;11.08;71.37
53932;BME280;39844;52.496;13.482;2024-03-29T08:53:20;99836.97;;;11.16;70.73
53932;BME280;39844;52.496;13.482;2024-03-29T08:55:46;99852.59;;;11.22;70.65
53932;BME280;39844;52.496;13.482;2024-03-29T08:58:12;99842.00;;;11.27;69.95
53932;BME280;39844;52.496;13.482;2024-03-29T09:00:37;99851.47;;;11.35;69.79
53932;BME280;39844;52.496;13.482;2024-03-29T09:03:02;99853.06;;;11.42;69.73
53932;BME280;39844;52.496;13.482;2024-03-29T09:05:28;99857.25;;;11.51;68.81
53932;BME280;39844;52.496;13.482;2024-03-29T09:07:53;99845.53;;;11.66;68.90
53932;BME280;39844;52.496;13.482;2024-03-29T09:10:18;99851.38;;;11.80;68.60
53932;BME280;39844;52.496;13.482;2024-03-29T09:12:43;99858.88;;;11.96;68.78
53932;BME280;39844;52.496;13.482;2024-03-29T09:15:09;99855.88;;;12.12;68.23
53932;BME280;39844;52.496;13.482;2024-03-29T09:17:35;99861.72;;;12.24;66.64
53932;BME280;39844;52.496;13.482;2024-03-29T09:20:00;99852.63;;;12.37;66.03
53932;BME280;39844;52.496;13.482;2024-03-29T09:22:25;99869.81;;;12.50;64.96
53932;BME280;39844;52.496;13.482;2024-03-29T09:24:51;99867.81;;;12.60;63.58
53932;BME280;39844;52.496;13.482;2024-03-29T09:27:16;99868.41;;;12.71;64.07
53932;BME280;39844;52.496;13.482;2024-03-29T09:29:41;99855.13;;;12.74;63.24
53932;BME280;39844;52.496;13.482;2024-03-29T09:32:07;99856.09;;;12.72;61.72
53932;BME280;39844;52.496;13.482;2024-03-29T09:34:32;99864.72;;;12.77;61.90
53932;BME280;39844;52.496;13.482;2024-03-29T09:36:57;99862.75;;;12.85;62.17
53932;BME280;39844;52.496;13.482;2024-03-29T09:39:23;99859.91;;;12.92;62.34
53932;BME280;39844;52.496;13.482;2024-03-29T09:41:49;99863.25;;;12.99;62.03
53932;BME280;39844;52.496;13.482;2024-03-29T09:44:15;99871.06;;;13.02;62.28
53932;BME280;39844;52.496;13.482;2024-03-29T09:46:41;99875.34;;;13.06;61.37
53932;BME280;39844;52.496;13.482;2024-03-29T09:49:07;99869.91;;;13.13;61.70
53932;BME280;39844;52.496;13.482;2024-03-29T09:51:32;99874.97;;;13.21;60.80
53932;BME280;39844;52.496;13.482;2024-03-29T09:53:59;99873.19;;;13.21;59.14
53932;BME280;39844;52.496;13.482;2024-03-29T09:56:26;99873.13;;;13.23;58.69
53932;BME280;39844;52.496;13.482;2024-03-29T09:58:52;99878.31;;;13.26;58.64
53932;BME280;39844;52.496;13.482;2024-03-29T10:01:17;99866.59;;;13.36;59.12
53932;BME280;39844;52.496;13.482;2024-03-29T10:03:45;99872.66;;;13.40;58.63
53932;BME280;39844;52.496;13.482;2024-03-29T10:06:13;99866.47;;;13.41;58.83
53932;BME280;39844;52.496;13.482;2024-03-29T10:08:38;99864.66;;;13.43;59.32
53932;BME280;39844;52.496;13.482;2024-03-29T10:11:04;99859.38;;;13.43;58.48
53932;BME280;39844;52.496;13.482;2024-03-29T10:13:29;99858.25;;;13.51;59.64
53932;BME280;39844;52.496;13.482;2024-03-29T10:15:55;99854.59;;;13.55;59.17
53932;BME280;39844;52.496;13.482;2024-03-29T10:18:27;99856.44;;;13.53;59.08
53932;BME280;39844;52.496;13.482;2024-03-29T10:21:03;99864.53;;;13.47;60.04
53932;BME280;39844;52.496;13.482;2024-03-29T10:23:29;99856.78;;;13.41;59.57
53932;BME280;39844;52.496;13.482;2024-03-29T10:25:55;99852.84;;;13.26;59.61
53932;BME280;39844;52.496;13.482;2024-03-29T10:28:20;99847.06;;;13.14;61.48
53932;BME280;39844;52.496;13.482;2024-03-29T10:30:46;99852.72;;;12.99;62.18
53932;BME280;39844;52.496;13.482;2024-03-29T10:33:15;99851.31;;;12.86;63.76
53932;BME280;39844;52.496;13.482;2024-03-29T10:35:43;99835.69;;;12.80;64.84
53932;BME280;39844;52.496;13.482;2024-03-29T10:38:11;99826.28;;;12.71;64.84
53932;BME280;39844;52.496;13.482;2024-03-29T10:40:40;99818.41;;;12.69;66.29
53932;BME280;39844;52.496;13.482;2024-03-29T10:43:10;99815.78;;;12.69;65.91
53932;BME280;39844;52.496;13.482;2024-03-29T10:45:36;99808.69;;;12.72;65.91
53932;BME280;39844;52.496;13.482;2024-03-29T10:48:03;99823.66;;;12.69;65.78
53932;BME280;39844;52.496;13.482;2024-03-29T10:50:31;99816.69;;;12.68;66.15
53932;BME280;39844;52.496;13.482;2024-03-29T10:52:58;99819.28;;;12.70;66.29
53932;BME280;39844;52.496;13.482;2024-03-29T10:55:27;99820.22;;;12.67;66.75
53932;BME280;39844;52.496;13.482;2024-03-29T10:57:55;99812.25;;;12.71;68.37
53932;BME280;39844;52.496;13.482;2024-03-29T11:00:23;99813.72;;;12.81;69.34
53932;BME280;39844;52.496;13.482;2024-03-29T11:03:16;99817.03;;;12.87;69.39
53932;BME280;39844;52.496;13.482;2024-03-29T11:05:50;99799.84;;;13.05;69.27
53932;BME280;39844;52.496;13.482;2024-03-29T11:08:23;99779.38;;;13.14;68.11
53932;BME280;39844;52.496;13.482;2024-03-29T11:10:50;99766.75;;;13.27;68.50
53932;BME280;39844;52.496;13.482;2024-03-29T11:13:27;99757.53;;;13.40;68.32
53932;BME280;39844;52.496;13.482;2024-03-29T11:15:58;99763.91;;;13.61;67.80
53932;BME280;39844;52.496;13.482;2024-03-29T11:18:24;99764.19;;;13.79;67.40
53932;BME280;39844;52.496;13.482;2024-03-29T11:20:49;99755.72;;;13.96;67.16
53932;BME280;39844;52.496;13.482;2024-03-29T11:23:16;99765.72;;;14.13;66.72
53932;BME280;39844;52.496;13.482;2024-03-29T11:25:43;99753.88;;;14.24;65.77
53932;BME280;39844;52.496;13.482;2024-03-29T11:28:11;99732.53;;;14.30;64.41
53932;BME280;39844;52.496;13.482;2024-03-29T11:30:50;99723.50;;;14.39;64.36
53932;BME280;39844;52.496;13.482;2024-03-29T11:33:32;99730.00;;;14.53;64.36
53932;BME280;39844;52.496;13.482;2024-03-29T11:35:58;99734.19;;;14.59;63.08
53932;BME280;39844;52.496;13.482;2024-03-29T11:38:31;99727.25;;;14.57;62.81
53932;BME280;39844;52.496;13.482;2024-03-29T11:41:14;99723.25;;;14.45;61.70
53932;BME280;39844;52.496;13.482;2024-03-29T11:43:40;99729.00;;;14.31;61.53
53932;BME280;39844;52.496;13.482;2024-03-29T11:46:07;99739.06;;;14.20;61.17
53932;BME280;39844;52.496;13.482;2024-03-29T11:48:33;99725.38;;;14.09;62.39
53932;BME280;39844;52.496;13.482;2024-03-29T11:51:00;99724.81;;;14.00;62.16
53932;BME280;39844;52.496;13.482;2024-03-29T11:53:26;99732.09;;;13.93;62.65
53932;BME280;39844;52.496;13.482;2024-03-29T11:55:52;99740.13;;;13.88;63.45
53932;BME280;39844;52.496;13.482;2024-03-29T11:58:17;99745.66;;;13.81;63.22
53932;BME280;39844;52.496;13.482;2024-03-29T12:00:42;99743.19;;;13.76;63.58
53932;BME280;39844;52.496;13.482;2024-03-29T12:03:08;99746.13;;;13.67;63.58
53932;BME280;39844;52.496;13.482;2024-03-29T12:05:33;99765.56;;;13.65;64.51
53932;BME280;39844;52.496;13.482;2024-03-29T12:07:58;99771.78;;;13.62;65.31
53932;BME280;39844;52.496;13.482;2024-03-29T12:10:30;99767.31;;;13.64;66.84
53932;BME280;39844;52.496;13.482;2024-03-29T12:12:59;99764.63;;;13.66;66.82
53932;BME280;39844;52.496;13.482;2024-03-29T12:15:24;99764.72;;;13.63;66.47
53932;BME280;39844;52.496;13.482;2024-03-29T12:17:54;99752.63;;;13.57;66.74
53932;BME280;39844;52.496;13.482;2024-03-29T12:20:20;99761.25;;;13.61;67.01
53932;BME280;39844;52.496;13.482;2024-03-29T12:22:45;99750.47;;;13.68;66.99
53932;BME280;39844;52.496;13.482;2024-03-29T12:25:10;99752.00;;;13.75;67.48
53932;BME280;39844;52.496;13.482;2024-03-29T12:27:36;99740.19;;;13.87;66.81
53932;BME280;39844;52.496;13.482;2024-03-29T12:30:01;99738.25;;;13.92;65.96
53932;BME280;39844;52.496;13.482;2024-03-29T12:32:26;99728.25;;;14.02;65.59
53932;BME280;39844;52.496;13.482;2024-03-29T12:34:51;99704.09;;;14.14;65.13
53932;BME280;39844;52.496;13.482;2024-03-29T12:37:17;99697.47;;;14.27;64.08
53932;BME280;39844;52.496;13.482;2024-03-29T12:39:42;99679.41;;;14.41;64.05
53932;BME280;39844;52.496;13.482;2024-03-29T12:42:07;99680.69;;;14.54;63.10
53932;BME280;39844;52.496;13.482;2024-03-29T12:44:33;99668.69;;;14.69;61.99
53932;BME280;39844;52.496;13.482;2024-03-29T12:47:00;99667.84;;;14.90;61.81
53932;BME280;39844;52.496;13.482;2024-03-29T12:49:25;99682.53;;;15.20;60.61
53932;BME280;39844;52.496;13.482;2024-03-29T12:51:51;99684.84;;;15.51;59.01